createdAt,value
2022-07-29T00:00:01.426Z,99283.78
2022-07-29T00:00:58.195Z,99282.03
2022-07-29T00:01:54.918Z,99273.22
2022-07-29T00:02:51.693Z,99283.25
2022-07-29T00:03:49.049Z,99278.13
2022-07-29T00:04:45.907Z,99267.84
2022-07-29T00:05:42.826Z,99266.84
2022-07-29T00:06:39.830Z,99266.25
2022-07-29T00:07:36.690Z,99265.50
2022-07-29T00:08:33.374Z,99266.63
2022-07-29T00:09:30.492Z,99267.66
2022-07-29T00:10:27.228Z,99264.25
2022-07-29T00:11:23.975Z,99260.59
2022-07-29T00:12:26.318Z,99254.44
2022-07-29T00:13:32.262Z,99258.13
2022-07-29T00:14:29.487Z,99265.31
2022-07-29T00:15:26.288Z,99264.59
2022-07-29T00:16:24.198Z,99255.94
2022-07-29T00:17:21.054Z,99264.09
2022-07-29T00:23:57.063Z,99267.81
2022-07-29T00:24:53.836Z,99252.78
2022-07-29T00:25:50.525Z,99254.69
2022-07-29T00:26:47.241Z,99248.63
2022-07-29T00:27:44.013Z,99248.69
2022-07-29T00:28:40.788Z,99253.28
2022-07-29T00:29:37.536Z,99245.41
2022-07-29T00:30:34.319Z,99242.75
2022-07-29T00:31:31.229Z,99245.34
2022-07-29T00:32:27.965Z,99250.69
2022-07-29T00:33:24.972Z,99252.38
2022-07-29T00:34:40.531Z,99248.84
2022-07-29T00:35:46.325Z,99250.63
2022-07-29T00:36:43.559Z,99244.47
2022-07-29T00:37:40.290Z,99243.63
2022-07-29T00:38:37.199Z,99250.63
2022-07-29T00:39:34.327Z,99239.16
2022-07-29T00:40:31.260Z,99239.97
2022-07-29T00:41:28.133Z,99241.75
2022-07-29T00:42:24.940Z,99238.22
2022-07-29T00:43:21.691Z,99242.53
2022-07-29T00:44:18.599Z,99246.06
2022-07-29T00:45:15.452Z,99249.75
2022-07-29T00:46:12.373Z,99244.38
2022-07-29T00:47:09.975Z,99242.44
2022-07-29T00:53:53.789Z,99241.72
2022-07-29T00:54:50.532Z,99255.00
2022-07-29T00:55:47.287Z,99241.59
2022-07-29T00:56:44.105Z,99251.97
2022-07-29T00:57:44.544Z,99249.09
2022-07-29T00:58:41.236Z,99248.22
2022-07-29T00:59:37.960Z,99252.50
2022-07-29T01:00:34.812Z,99249.53
2022-07-29T01:01:32.024Z,99257.19
2022-07-29T01:02:28.831Z,99250.84
2022-07-29T01:03:25.745Z,99253.56
2022-07-29T01:04:22.758Z,99252.41
2022-07-29T01:05:22.960Z,99262.16
2022-07-29T01:06:19.787Z,99255.91
2022-07-29T01:07:16.770Z,99257.75
2022-07-29T01:08:14.727Z,99251.56
2022-07-29T01:09:12.028Z,99246.66
2022-07-29T01:10:10.416Z,99241.69
2022-07-29T01:11:07.225Z,99250.16
2022-07-29T01:12:04.286Z,99241.28
2022-07-29T01:13:02.562Z,99239.69
2022-07-29T01:13:59.593Z,99236.31
2022-07-29T01:14:56.434Z,99233.72
2022-07-29T01:15:57.821Z,99239.25
2022-07-29T01:17:09.752Z,99244.78
2022-07-29T01:18:39.079Z,99242.06
2022-07-29T01:19:41.317Z,99231.41
2022-07-29T01:20:50.191Z,99237.47
2022-07-29T01:21:56.223Z,99235.38
2022-07-29T01:24:30.433Z,99236.25
2022-07-29T01:25:45.550Z,99242.25
2022-07-29T01:26:43.553Z,99251.03
2022-07-29T01:27:46.493Z,99247.59
2022-07-29T01:29:12.554Z,99245.19
2022-07-29T01:30:09.819Z,99239.91
2022-07-29T01:31:07.923Z,99241.88
2022-07-29T01:32:27.329Z,99238.25
2022-07-29T01:33:43.762Z,99244.53
2022-07-29T01:34:49.303Z,99246.31
2022-07-29T01:35:50.049Z,99233.91
2022-07-29T01:36:49.580Z,99241.91
2022-07-29T01:37:58.225Z,99237.59
2022-07-29T01:39:12.147Z,99236.72
2022-07-29T01:40:23.056Z,99238.88
2022-07-29T01:41:20.311Z,99243.41
2022-07-29T01:42:37.911Z,99245.16
2022-07-29T01:43:39.772Z,99244.56
2022-07-29T01:44:50.169Z,99231.50
2022-07-29T01:45:54.681Z,99243.25
2022-07-29T01:46:55.177Z,99231.97
2022-07-29T01:53:43.806Z,99229.75
2022-07-29T01:54:46.713Z,99237.81
2022-07-29T01:55:45.357Z,99232.69
2022-07-29T01:56:42.180Z,99231.88
2022-07-29T01:57:39.228Z,99237.34
2022-07-29T01:58:36.204Z,99237.97
2022-07-29T01:59:33.008Z,99242.13
2022-07-29T02:00:29.834Z,99236.56
2022-07-29T02:01:26.680Z,99239.97
2022-07-29T02:02:23.469Z,99239.03
2022-07-29T02:03:20.381Z,99234.53
2022-07-29T02:04:29.525Z,99234.59
2022-07-29T02:05:26.896Z,99231.00
2022-07-29T02:06:23.796Z,99238.31
2022-07-29T02:07:22.217Z,99228.75
2022-07-29T02:08:19.421Z,99230.03
2022-07-29T02:09:18.854Z,99237.97
2022-07-29T02:10:15.894Z,99232.69
2022-07-29T02:11:12.760Z,99232.75
2022-07-29T02:12:14.566Z,99234.44
2022-07-29T02:13:11.627Z,99236.63
2022-07-29T02:14:08.436Z,99238.66
2022-07-29T02:15:06.421Z,99234.28
2022-07-29T02:16:03.799Z,99232.66
2022-07-29T02:17:00.873Z,99230.81
2022-07-29T02:18:02.638Z,99233.72
2022-07-29T02:23:50.613Z,99228.00
2022-07-29T02:24:48.645Z,99236.09
2022-07-29T02:25:45.559Z,99229.94
2022-07-29T02:26:42.663Z,99231.59
2022-07-29T02:27:39.546Z,99226.25
2022-07-29T02:28:36.482Z,99239.19
2022-07-29T02:29:33.329Z,99235.59
2022-07-29T02:30:30.084Z,99232.94
2022-07-29T02:31:39.072Z,99231.19
2022-07-29T02:32:36.850Z,99227.88
2022-07-29T02:33:33.655Z,99230.84
2022-07-29T02:34:30.573Z,99239.03
2022-07-29T02:35:27.406Z,99237.44
2022-07-29T02:36:24.219Z,99236.69
2022-07-29T02:37:21.205Z,99232.22
2022-07-29T02:38:36.645Z,99233.75
2022-07-29T02:39:33.431Z,99245.22
2022-07-29T02:40:30.258Z,99241.56
2022-07-29T02:41:48.961Z,99248.63
2022-07-29T02:42:45.950Z,99248.09
2022-07-29T02:43:42.674Z,99248.00
2022-07-29T02:44:39.383Z,99247.84
2022-07-29T02:45:36.299Z,99259.28
2022-07-29T02:46:35.133Z,99255.78
2022-07-29T02:53:45.061Z,99256.78
2022-07-29T02:55:08.797Z,99252.13
2022-07-29T02:56:11.796Z,99249.31
2022-07-29T02:57:16.678Z,99252.94
2022-07-29T02:58:17.381Z,99247.81
2022-07-29T02:59:14.373Z,99250.38
2022-07-29T03:00:11.906Z,99258.38
2022-07-29T03:01:21.367Z,99252.94
2022-07-29T03:02:18.953Z,99265.44
2022-07-29T03:03:16.900Z,99258.50
2022-07-29T03:04:14.296Z,99254.16
2022-07-29T03:05:14.446Z,99256.44
2022-07-29T03:06:28.527Z,99259.09
2022-07-29T03:07:28.067Z,99260.94
2022-07-29T03:08:24.840Z,99254.59
2022-07-29T03:09:22.196Z,99250.31
2022-07-29T03:10:19.333Z,99254.97
2022-07-29T03:11:16.266Z,99262.03
2022-07-29T03:12:13.004Z,99262.91
2022-07-29T03:13:10.135Z,99255.91
2022-07-29T03:14:06.887Z,99252.31
2022-07-29T03:15:04.476Z,99259.38
2022-07-29T03:16:01.181Z,99250.72
2022-07-29T03:16:58.052Z,99253.31
2022-07-29T03:23:28.938Z,99255.97
2022-07-29T03:24:33.664Z,99257.97
2022-07-29T03:25:30.429Z,99257.16
2022-07-29T03:26:27.170Z,99251.03
2022-07-29T03:27:23.897Z,99256.47
2022-07-29T03:28:20.836Z,99254.88
2022-07-29T03:29:18.986Z,99253.13
2022-07-29T03:30:22.354Z,99260.19
2022-07-29T03:31:19.516Z,99258.66
2022-07-29T03:32:16.326Z,99255.06
2022-07-29T03:33:20.778Z,99253.94
2022-07-29T03:34:18.026Z,99260.16
2022-07-29T03:35:15.146Z,99252.06
2022-07-29T03:36:11.935Z,99255.56
2022-07-29T03:37:08.779Z,99254.69
2022-07-29T03:38:05.739Z,99251.34
2022-07-29T03:39:02.702Z,99251.16
2022-07-29T03:39:59.402Z,99250.22
2022-07-29T03:40:59.062Z,99251.88
2022-07-29T03:41:57.189Z,99242.38
2022-07-29T03:42:54.286Z,99252.88
2022-07-29T03:43:51.063Z,99246.09
2022-07-29T03:44:48.857Z,99257.53
2022-07-29T03:45:48.599Z,99253.06
2022-07-29T03:46:45.789Z,99253.91
2022-07-29T03:47:51.132Z,99257.34
2022-07-29T03:53:23.101Z,99259.03
2022-07-29T03:54:20.165Z,99259.09
2022-07-29T03:55:17.220Z,99264.41
2022-07-29T03:56:14.242Z,99263.50
2022-07-29T03:57:11.682Z,99265.38
2022-07-29T03:58:09.106Z,99261.41
2022-07-29T03:59:05.943Z,99261.59
2022-07-29T04:00:03.279Z,99257.38
2022-07-29T04:01:00.265Z,99270.81
2022-07-29T04:01:57.206Z,99263.94
2022-07-29T04:02:54.010Z,99263.19
2022-07-29T04:03:52.318Z,99266.91
2022-07-29T04:04:49.209Z,99270.34
2022-07-29T04:05:45.916Z,99260.63
2022-07-29T04:06:43.652Z,99264.84
2022-07-29T04:07:41.445Z,99263.88
2022-07-29T04:08:38.327Z,99263.75
2022-07-29T04:09:35.134Z,99273.38
2022-07-29T04:10:32.314Z,99268.84
2022-07-29T04:11:31.012Z,99273.16
2022-07-29T04:12:27.844Z,99267.81
2022-07-29T04:13:24.594Z,99266.97
2022-07-29T04:14:21.585Z,99259.09
2022-07-29T04:15:18.449Z,99267.88
2022-07-29T04:16:15.183Z,99259.97
2022-07-29T04:17:12.025Z,99258.19
2022-07-29T04:24:14.222Z,99266.38
2022-07-29T04:25:11.312Z,99269.78
2022-07-29T04:26:11.870Z,99273.28
2022-07-29T04:27:08.785Z,99271.34
2022-07-29T04:28:05.925Z,99272.34
2022-07-29T04:29:02.793Z,99272.16
2022-07-29T04:29:59.542Z,99265.88
2022-07-29T04:30:56.292Z,99271.97
2022-07-29T04:31:53.062Z,99271.97
2022-07-29T04:32:49.810Z,99268.28
2022-07-29T04:33:46.605Z,99275.38
2022-07-29T04:34:43.467Z,99270.91
2022-07-29T04:35:47.202Z,99267.28
2022-07-29T04:36:49.207Z,99264.38
2022-07-29T04:37:46.130Z,99268.97
2022-07-29T04:38:42.832Z,99260.06
2022-07-29T04:39:39.625Z,99267.03
2022-07-29T04:40:38.523Z,99266.97
2022-07-29T04:41:35.561Z,99265.28
2022-07-29T04:42:32.671Z,99274.97
2022-07-29T04:43:29.396Z,99273.84
2022-07-29T04:44:33.492Z,99270.22
2022-07-29T04:45:36.447Z,99272.03
2022-07-29T04:46:33.380Z,99272.13
2022-07-29T04:47:30.849Z,99269.44
2022-07-29T04:53:09.114Z,99266.06
2022-07-29T04:54:06.075Z,99267.63
2022-07-29T04:55:04.176Z,99274.56
2022-07-29T04:56:09.821Z,99277.22
2022-07-29T04:57:06.810Z,99278.00
2022-07-29T04:58:03.572Z,99290.41
2022-07-29T04:59:00.517Z,99287.88
2022-07-29T04:59:57.285Z,99283.53
2022-07-29T05:00:53.950Z,99279.03
2022-07-29T05:01:50.880Z,99280.88
2022-07-29T05:02:47.777Z,99278.00
2022-07-29T05:03:45.289Z,99281.63
2022-07-29T05:04:42.155Z,99283.22
2022-07-29T05:05:38.857Z,99276.88
2022-07-29T05:06:35.532Z,99278.47
2022-07-29T05:07:32.308Z,99275.75
2022-07-29T05:08:29.156Z,99285.53
2022-07-29T05:09:25.885Z,99281.09
2022-07-29T05:10:22.795Z,99281.13
2022-07-29T05:11:21.778Z,99275.91
2022-07-29T05:12:20.033Z,99282.72
2022-07-29T05:13:17.186Z,99278.28
2022-07-29T05:14:14.355Z,99278.22
2022-07-29T05:15:11.419Z,99270.16
2022-07-29T05:16:09.293Z,99273.59
2022-07-29T05:17:06.438Z,99269.19
2022-07-29T05:24:00.177Z,99277.19
2022-07-29T05:24:56.906Z,99271.00
2022-07-29T05:25:53.708Z,99274.47
2022-07-29T05:26:50.488Z,99268.06
2022-07-29T05:27:47.263Z,99273.25
2022-07-29T05:28:47.866Z,99273.09
2022-07-29T05:29:45.939Z,99274.97
2022-07-29T05:30:42.939Z,99273.91
2022-07-29T05:31:39.755Z,99260.56
2022-07-29T05:32:37.062Z,99274.88
2022-07-29T05:33:35.771Z,99267.03
2022-07-29T05:34:33.591Z,99274.09
2022-07-29T05:35:30.345Z,99275.84
2022-07-29T05:36:27.198Z,99268.78
2022-07-29T05:37:23.944Z,99272.31
2022-07-29T05:38:20.861Z,99281.38
2022-07-29T05:39:17.699Z,99281.09
2022-07-29T05:40:16.117Z,99267.75
2022-07-29T05:41:12.896Z,99278.41
2022-07-29T05:42:12.857Z,99278.31
2022-07-29T05:43:09.713Z,99265.97
2022-07-29T05:44:06.494Z,99275.63
2022-07-29T05:45:04.083Z,99279.22
2022-07-29T05:46:00.954Z,99273.09
2022-07-29T05:46:58.049Z,99280.09
2022-07-29T05:53:54.507Z,99283.63
2022-07-29T05:54:51.270Z,99275.69
2022-07-29T05:55:48.881Z,99284.41
2022-07-29T05:56:45.636Z,99281.69
2022-07-29T05:57:44.426Z,99277.94
2022-07-29T05:58:41.282Z,99273.31
2022-07-29T05:59:39.112Z,99284.44
2022-07-29T06:00:35.922Z,99278.84
2022-07-29T06:01:35.150Z,99285.38
2022-07-29T06:02:32.155Z,99281.59
2022-07-29T06:03:29.104Z,99289.44
2022-07-29T06:04:25.869Z,99279.16
2022-07-29T06:05:22.719Z,99280.66
2022-07-29T06:06:19.541Z,99274.84
2022-07-29T06:07:17.284Z,99273.78
2022-07-29T06:08:14.163Z,99274.31
2022-07-29T06:09:12.478Z,99268.75
2022-07-29T06:10:10.285Z,99274.56
2022-07-29T06:11:07.151Z,99281.44
2022-07-29T06:12:04.399Z,99269.47
2022-07-29T06:13:01.209Z,99280.47
2022-07-29T06:13:57.989Z,99280.53
2022-07-29T06:14:54.793Z,99282.56
2022-07-29T06:15:51.664Z,99280.28
2022-07-29T06:16:48.560Z,99289.38
2022-07-29T06:18:00.543Z,99277.03
2022-07-29T06:23:46.461Z,99273.84
2022-07-29T06:24:44.860Z,99286.75
2022-07-29T06:25:41.794Z,99280.91
2022-07-29T06:26:40.007Z,99281.66
2022-07-29T06:27:36.899Z,99285.91
2022-07-29T06:28:34.025Z,99280.44
2022-07-29T06:29:31.727Z,99285.69
2022-07-29T06:30:29.709Z,99280.03
2022-07-29T06:31:26.751Z,99275.41
2022-07-29T06:32:23.858Z,99273.44
2022-07-29T06:33:25.851Z,99275.97
2022-07-29T06:34:22.712Z,99278.53
2022-07-29T06:35:39.193Z,99281.22
2022-07-29T06:36:37.740Z,99276.81
2022-07-29T06:37:34.602Z,99278.53
2022-07-29T06:38:34.475Z,99275.34
2022-07-29T06:39:38.867Z,99278.69
2022-07-29T06:40:55.026Z,99274.91
2022-07-29T06:41:51.969Z,99280.69
2022-07-29T06:42:48.875Z,99279.91
2022-07-29T06:43:52.020Z,99275.94
2022-07-29T06:44:49.601Z,99288.44
2022-07-29T06:45:46.455Z,99282.25
2022-07-29T06:46:43.225Z,99286.72
2022-07-29T06:47:39.995Z,99284.91
2022-07-29T06:48:39.634Z,99289.38
2022-07-29T06:53:12.625Z,99282.56
2022-07-29T06:54:09.395Z,99283.91
2022-07-29T06:55:06.746Z,99283.63
2022-07-29T06:56:04.661Z,99284.41
2022-07-29T06:57:01.472Z,99283.34
2022-07-29T06:57:58.270Z,99286.56
2022-07-29T06:58:55.168Z,99289.69
2022-07-29T06:59:51.834Z,99288.22
2022-07-29T07:00:48.889Z,99294.00
2022-07-29T07:01:45.873Z,99289.13
2022-07-29T07:02:42.862Z,99302.78
2022-07-29T07:03:39.733Z,99298.00
2022-07-29T07:04:36.562Z,99296.91
2022-07-29T07:05:33.438Z,99299.88
2022-07-29T07:06:30.227Z,99303.16
2022-07-29T07:07:27.183Z,99310.09
2022-07-29T07:08:24.759Z,99306.41
2022-07-29T07:09:21.614Z,99317.63
2022-07-29T07:10:18.993Z,99312.75
2022-07-29T07:11:19.313Z,99312.25
2022-07-29T07:12:16.313Z,99313.91
2022-07-29T07:13:13.516Z,99317.19
2022-07-29T07:14:10.545Z,99319.59
2022-07-29T07:15:07.864Z,99307.91
2022-07-29T07:16:05.212Z,99317.34
2022-07-29T07:17:04.291Z,99318.34
2022-07-29T07:23:58.073Z,99316.09
2022-07-29T07:24:55.011Z,99317.94
2022-07-29T07:25:52.204Z,99323.44
2022-07-29T07:26:49.112Z,99317.84
2022-07-29T07:27:46.017Z,99323.75
2022-07-29T07:28:42.985Z,99325.28
2022-07-29T07:29:45.792Z,99323.78
2022-07-29T07:30:42.679Z,99317.19
2022-07-29T07:31:39.658Z,99324.34
2022-07-29T07:32:36.501Z,99324.97
2022-07-29T07:33:33.315Z,99323.41
2022-07-29T07:34:31.155Z,99319.72
2022-07-29T07:35:28.777Z,99324.56
2022-07-29T07:36:28.193Z,99323.78
2022-07-29T07:37:25.833Z,99323.16
2022-07-29T07:38:22.919Z,99321.56
2022-07-29T07:39:19.794Z,99322.53
2022-07-29T07:40:18.626Z,99318.97
2022-07-29T07:41:15.825Z,99326.63
2022-07-29T07:42:13.913Z,99322.44
2022-07-29T07:43:10.690Z,99313.63
2022-07-29T07:44:07.522Z,99315.34
2022-07-29T07:45:13.708Z,99313.63
2022-07-29T07:46:13.163Z,99320.28
2022-07-29T07:47:12.568Z,99321.81
2022-07-29T07:54:03.004Z,99327.97
2022-07-29T07:55:01.042Z,99328.47
2022-07-29T07:56:10.593Z,99320.63
2022-07-29T07:57:08.433Z,99320.53
2022-07-29T07:58:05.136Z,99320.38
2022-07-29T07:59:02.260Z,99318.34
2022-07-29T07:59:59.100Z,99320.16
2022-07-29T08:00:56.036Z,99312.22
2022-07-29T08:01:55.724Z,99328.53
2022-07-29T08:02:53.325Z,99314.91
2022-07-29T08:03:53.133Z,99322.22
2022-07-29T08:04:49.951Z,99321.03
2022-07-29T08:05:47.592Z,99319.09
2022-07-29T08:06:44.318Z,99323.41
2022-07-29T08:07:41.110Z,99323.22
2022-07-29T08:08:37.828Z,99327.50
2022-07-29T08:09:35.371Z,99336.28
2022-07-29T08:10:50.554Z,99327.88
2022-07-29T08:11:52.071Z,99336.81
2022-07-29T08:12:49.110Z,99331.56
2022-07-29T08:13:45.934Z,99332.09
2022-07-29T08:14:42.675Z,99330.22
2022-07-29T08:15:39.925Z,99327.97
2022-07-29T08:16:36.754Z,99332.50
2022-07-29T08:17:35.356Z,99335.97
2022-07-29T08:24:24.604Z,99333.81
2022-07-29T08:25:21.642Z,99341.06
2022-07-29T08:26:18.946Z,99339.69
2022-07-29T08:27:40.686Z,99334.00
2022-07-29T08:28:32.451Z,99344.78
2022-07-29T08:29:29.226Z,99342.28
2022-07-29T08:30:26.037Z,99339.59
2022-07-29T08:31:22.959Z,99333.91
2022-07-29T08:32:37.183Z,99337.16
2022-07-29T08:33:36.609Z,99340.97
2022-07-29T08:34:33.418Z,99329.44
2022-07-29T08:35:35.110Z,99337.22
2022-07-29T08:36:33.303Z,99332.56
2022-07-29T08:37:30.069Z,99338.44
2022-07-29T08:38:27.292Z,99338.34
2022-07-29T08:39:24.073Z,99345.09
2022-07-29T08:40:32.227Z,99341.63
2022-07-29T08:41:29.278Z,99346.03
2022-07-29T08:42:26.066Z,99349.50
2022-07-29T08:43:22.863Z,99340.88
2022-07-29T08:44:22.444Z,99342.06
2022-07-29T08:45:27.536Z,99346.16
2022-07-29T08:46:24.646Z,99341.19
2022-07-29T08:47:21.373Z,99338.81
2022-07-29T08:53:07.050Z,99344.84
2022-07-29T08:54:04.065Z,99334.22
2022-07-29T08:55:00.813Z,99345.59
2022-07-29T08:55:57.574Z,99344.44
2022-07-29T08:56:54.912Z,99345.19
2022-07-29T08:57:54.369Z,99338.16
2022-07-29T08:58:54.613Z,99341.97
2022-07-29T08:59:52.664Z,99339.63
2022-07-29T09:00:55.551Z,99343.03
2022-07-29T09:01:53.353Z,99334.34
2022-07-29T09:02:52.772Z,99339.03
2022-07-29T09:03:49.571Z,99342.84
2022-07-29T09:04:46.430Z,99347.22
2022-07-29T09:05:47.782Z,99339.84
2022-07-29T09:06:46.496Z,99348.28
2022-07-29T09:07:44.414Z,99352.59
2022-07-29T09:08:41.849Z,99342.69
2022-07-29T09:09:40.853Z,99349.81
2022-07-29T09:10:37.687Z,99347.41
2022-07-29T09:11:34.864Z,99346.78
2022-07-29T09:12:34.857Z,99347.25
2022-07-29T09:13:35.207Z,99346.38
2022-07-29T09:14:33.995Z,99352.31
2022-07-29T09:15:30.794Z,99344.03
2022-07-29T09:16:51.903Z,99344.84
2022-07-29T09:23:33.351Z,99342.00
2022-07-29T09:24:35.978Z,99339.25
2022-07-29T09:25:36.874Z,99343.59
2022-07-29T09:26:35.213Z,99343.53
2022-07-29T09:27:32.594Z,99340.00
2022-07-29T09:28:29.528Z,99342.09
2022-07-29T09:29:26.494Z,99339.00
2022-07-29T09:30:25.483Z,99346.38
2022-07-29T09:31:38.778Z,99339.94
2022-07-29T09:32:35.601Z,99346.13
2022-07-29T09:33:34.028Z,99341.50
2022-07-29T09:34:32.597Z,99348.13
2022-07-29T09:35:30.431Z,99340.78
2022-07-29T09:36:27.330Z,99341.19
2022-07-29T09:37:30.170Z,99347.06
2022-07-29T09:38:27.033Z,99350.88
2022-07-29T09:39:33.478Z,99349.38
2022-07-29T09:40:30.392Z,99346.38
2022-07-29T09:41:30.750Z,99350.28
2022-07-29T09:42:30.885Z,99349.16
2022-07-29T09:43:27.627Z,99353.16
2022-07-29T09:44:24.639Z,99355.25
2022-07-29T09:45:27.983Z,99345.72
2022-07-29T09:46:24.975Z,99353.66
2022-07-29T09:47:25.085Z,99358.81
2022-07-29T09:53:02.865Z,99360.75
2022-07-29T09:54:01.318Z,99356.59
2022-07-29T09:55:08.037Z,99358.84
2022-07-29T09:56:05.788Z,99359.69
2022-07-29T09:57:02.518Z,99365.53
2022-07-29T09:58:18.740Z,99358.47
2022-07-29T09:59:15.584Z,99364.09
2022-07-29T10:00:17.347Z,99371.91
2022-07-29T10:01:14.183Z,99363.06
2022-07-29T10:02:17.733Z,99368.38
2022-07-29T10:03:19.370Z,99368.22
2022-07-29T10:04:19.488Z,99374.44
2022-07-29T10:05:22.012Z,99372.16
2022-07-29T10:06:18.868Z,99368.53
2022-07-29T10:07:15.820Z,99368.88
2022-07-29T10:08:13.489Z,99372.47
2022-07-29T10:09:13.151Z,99359.53
2022-07-29T10:10:10.005Z,99357.66
2022-07-29T10:11:11.113Z,99367.41
2022-07-29T10:12:12.586Z,99364.19
2022-07-29T10:13:16.115Z,99363.66
2022-07-29T10:14:13.243Z,99364.69
2022-07-29T10:15:10.002Z,99368.09
2022-07-29T10:16:07.099Z,99362.97
2022-07-29T10:17:04.421Z,99361.63
2022-07-29T10:23:47.460Z,99357.63
2022-07-29T10:24:44.267Z,99366.41
2022-07-29T10:25:45.979Z,99362.59
2022-07-29T10:26:43.402Z,99359.38
2022-07-29T10:27:40.761Z,99350.97
2022-07-29T10:28:37.572Z,99350.16
2022-07-29T10:29:35.123Z,99358.34
2022-07-29T10:30:31.846Z,99350.94
2022-07-29T10:31:31.200Z,99352.84
2022-07-29T10:32:41.954Z,99356.38
2022-07-29T10:33:57.100Z,99353.13
2022-07-29T10:35:02.882Z,99351.06
2022-07-29T10:36:31.720Z,99351.50
2022-07-29T10:37:37.601Z,99349.63
2022-07-29T10:39:22.405Z,99347.41
2022-07-29T10:40:43.741Z,99352.00
2022-07-29T10:42:19.916Z,99347.66
2022-07-29T10:43:24.346Z,99346.44
2022-07-29T10:44:23.732Z,99355.69
2022-07-29T10:45:20.765Z,99352.84
2022-07-29T10:46:18.070Z,99353.13
2022-07-29T10:47:46.299Z,99349.53
2022-07-29T10:49:17.704Z,99355.63
2022-07-29T10:50:17.390Z,99360.34
2022-07-29T10:53:47.133Z,99356.91
2022-07-29T10:54:49.390Z,99352.25
2022-07-29T10:55:49.411Z,99355.88
2022-07-29T10:56:46.546Z,99347.97
2022-07-29T10:57:53.269Z,99355.88
2022-07-29T10:59:22.825Z,99350.94
2022-07-29T11:00:19.621Z,99358.13
2022-07-29T11:01:46.397Z,99358.63
2022-07-29T11:02:52.268Z,99358.84
2022-07-29T11:03:52.170Z,99358.81
2022-07-29T11:04:50.055Z,99344.69
2022-07-29T11:05:59.589Z,99365.03
2022-07-29T11:06:59.509Z,99363.63
2022-07-29T11:08:20.021Z,99378.34
2022-07-29T11:09:20.187Z,99366.63
2022-07-29T11:10:23.236Z,99362.59
2022-07-29T11:11:29.738Z,99368.88
2022-07-29T11:12:47.700Z,99360.59
2022-07-29T11:13:46.443Z,99367.03
2022-07-29T11:14:56.699Z,99365.44
2022-07-29T11:15:55.055Z,99370.03
2022-07-29T11:17:06.338Z,99367.59
2022-07-29T11:23:44.585Z,99369.63
2022-07-29T11:24:50.443Z,99374.75
2022-07-29T11:26:23.041Z,99373.69
2022-07-29T11:27:23.343Z,99370.13
2022-07-29T11:29:54.702Z,99358.13
2022-07-29T11:30:54.975Z,99366.16
2022-07-29T11:31:55.789Z,99353.31
2022-07-29T11:32:53.423Z,99363.78
2022-07-29T11:33:56.503Z,99367.59
2022-07-29T11:35:18.647Z,99364.72
2022-07-29T11:36:18.223Z,99372.59
2022-07-29T11:37:27.793Z,99370.50
2022-07-29T11:38:31.681Z,99366.22
2022-07-29T11:39:37.123Z,99370.44
2022-07-29T11:41:08.715Z,99367.50
2022-07-29T11:42:30.483Z,99375.03
2022-07-29T11:43:50.764Z,99376.38
2022-07-29T11:45:42.946Z,99366.78
2022-07-29T11:46:48.348Z,99368.91
2022-07-29T11:53:48.567Z,99371.63
2022-07-29T11:54:58.136Z,99371.75
2022-07-29T11:55:58.130Z,99375.16
2022-07-29T11:56:55.989Z,99370.44
2022-07-29T11:58:04.138Z,99368.59
2022-07-29T11:59:08.591Z,99375.59
2022-07-29T12:00:14.565Z,99369.88
2022-07-29T12:01:15.473Z,99367.22
2022-07-29T12:02:37.104Z,99365.41
2022-07-29T12:04:53.542Z,99366.28
2022-07-29T12:05:52.101Z,99359.97
2022-07-29T12:06:52.517Z,99361.78
2022-07-29T12:07:03.237Z,99364.22
2022-07-29T12:07:03.521Z,99373.94
2022-07-29T12:07:49.632Z,99361.97
2022-07-29T12:08:47.356Z,99367.53
2022-07-29T12:09:52.212Z,99359.72
2022-07-29T12:10:50.008Z,99362.72
2022-07-29T12:11:47.636Z,99357.81
2022-07-29T12:12:44.580Z,99363.91
2022-07-29T12:13:42.742Z,99361.97
2022-07-29T12:14:45.897Z,99366.44
2022-07-29T12:15:46.967Z,99358.94
2022-07-29T12:16:44.350Z,99356.75
2022-07-29T12:23:53.841Z,99362.56
2022-07-29T12:24:52.229Z,99363.41
2022-07-29T12:25:53.275Z,99366.66
2022-07-29T12:26:54.757Z,99353.50
2022-07-29T12:28:07.491Z,99359.75
2022-07-29T12:29:04.389Z,99356.25
2022-07-29T12:30:17.474Z,99362.78
2022-07-29T12:31:14.986Z,99363.09
2022-07-29T12:32:37.309Z,99359.78
2022-07-29T12:33:35.996Z,99371.81
2022-07-29T12:34:32.954Z,99378.56
2022-07-29T12:35:30.440Z,99371.16
2022-07-29T12:36:27.393Z,99373.13
2022-07-29T12:37:40.435Z,99359.25
2022-07-29T12:38:41.376Z,99357.22
2022-07-29T12:39:40.946Z,99362.47
2022-07-29T12:40:37.800Z,99347.59
2022-07-29T12:41:34.650Z,99357.19
2022-07-29T12:42:31.487Z,99353.31
2022-07-29T12:43:28.323Z,99349.53
2022-07-29T12:44:25.595Z,99354.66
2022-07-29T12:45:30.522Z,99356.41
2022-07-29T12:46:27.529Z,99352.31
2022-07-29T12:47:24.514Z,99349.59
2022-07-29T12:53:13.146Z,99363.03
2022-07-29T12:54:16.202Z,99344.81
2022-07-29T12:55:13.059Z,99339.97
2022-07-29T12:56:40.538Z,99350.03
2022-07-29T12:57:33.462Z,99354.94
2022-07-29T12:58:40.658Z,99352.34
2022-07-29T12:59:37.416Z,99347.34
2022-07-29T13:00:35.371Z,99344.31
2022-07-29T13:01:37.425Z,99347.19
2022-07-29T13:02:34.590Z,99354.69
2022-07-29T13:03:44.008Z,99352.28
2022-07-29T13:05:00.769Z,99358.94
2022-07-29T13:05:58.061Z,99358.53
2022-07-29T13:07:08.461Z,99364.63
2022-07-29T13:08:22.104Z,99360.63
2022-07-29T13:09:20.697Z,99356.97
2022-07-29T13:10:24.379Z,99353.41
2022-07-29T13:11:39.401Z,99366.34
2022-07-29T13:12:36.198Z,99365.47
2022-07-29T13:13:33.166Z,99367.78
2022-07-29T13:14:34.389Z,99358.75
2022-07-29T13:15:31.320Z,99370.06
2022-07-29T13:16:28.506Z,99352.91
2022-07-29T13:17:28.349Z,99365.47
2022-07-29T13:23:08.031Z,99371.09
2022-07-29T13:24:08.222Z,99378.41
2022-07-29T13:25:07.595Z,99367.88
2022-07-29T13:26:10.930Z,99377.06
2022-07-29T13:27:08.333Z,99368.13
2022-07-29T13:28:05.299Z,99371.97
2022-07-29T13:29:02.107Z,99373.66
2022-07-29T13:29:59.748Z,99375.13
2022-07-29T13:30:56.602Z,99373.44
2022-07-29T13:31:53.850Z,99373.28
2022-07-29T13:32:50.943Z,99374.84
2022-07-29T13:33:48.852Z,99376.06
2022-07-29T13:34:45.657Z,99367.59
2022-07-29T13:35:42.438Z,99363.41
2022-07-29T13:36:41.663Z,99372.22
2022-07-29T13:37:41.645Z,99372.19
2022-07-29T13:38:38.392Z,99375.00
2022-07-29T13:39:35.287Z,99376.69
2022-07-29T13:40:32.133Z,99372.22
2022-07-29T13:41:28.834Z,99374.34
2022-07-29T13:42:26.015Z,99372.19
2022-07-29T13:43:22.837Z,99373.50
2022-07-29T13:44:19.652Z,99370.06
2022-07-29T13:45:16.437Z,99373.06
2022-07-29T13:46:13.233Z,99367.59
2022-07-29T13:47:10.081Z,99372.41
2022-07-29T13:53:59.587Z,99367.19
2022-07-29T13:54:56.430Z,99373.84
2022-07-29T13:55:53.243Z,99370.31
2022-07-29T13:56:51.259Z,99369.06
2022-07-29T13:57:48.609Z,99368.13
2022-07-29T13:58:45.829Z,99372.16
2022-07-29T13:59:43.116Z,99374.66
2022-07-29T14:00:39.888Z,99367.25
2022-07-29T14:01:36.789Z,99372.84
2022-07-29T14:02:34.604Z,99378.63
2022-07-29T14:03:31.572Z,99366.75
2022-07-29T14:04:28.456Z,99371.03
2022-07-29T14:05:25.260Z,99375.13
2022-07-29T14:06:22.326Z,99367.16
2022-07-29T14:07:19.251Z,99373.25
2022-07-29T14:08:16.198Z,99373.00
2022-07-29T14:09:12.991Z,99377.38
2022-07-29T14:10:10.167Z,99372.78
2022-07-29T14:11:06.993Z,99371.56